Time;durP1;ratioP1;P1;durP2;ratioP2;P2;SDS_P1;SDS_P2;PMS_P1;PMS_P2;Temp;Humidity;BMP_temperature;BMP_pressure;BME280_temperature;BME280_humidity;BME280_pressure;Samples;Min_cycle;Max_cycle;Signal;HPM_P1;HPM_P2
2023/06/27 00:00:13;;;;;;;4.33;2.70;;;;;;;14.61;60.02;101373.56;680385;28;1359;-77
2023/06/27 00:00:34;;;;;;;4.10;2.47;;;;;;;14.61;60.29;101375.31;677251;29;1680;-77
2023/06/27 00:00:54;;;;;;;4.05;2.50;;;;;;;14.61;60.36;101375.31;679846;29;1176;-77
2023/06/27 00:01:15;;;;;;;4.80;2.50;;;;;;;14.57;60.25;101370.84;681826;28;1582;-77
2023/06/27 00:01:39;;;;;;;4.78;2.50;;;;;;;14.58;60.22;101370.00;677580;29;1275;-77
2023/06/27 00:02:00;;;;;;;4.75;2.55;;;;;;;14.58;60.58;101370.00;682434;28;1205;-77
2023/06/27 00:02:21;;;;;;;4.13;2.53;;;;;;;14.58;60.26;101375.25;682535;29;1515;-77
2023/06/27 00:02:42;;;;;;;4.90;2.60;;;;;;;14.54;60.63;101369.03;685101;28;1501;-77
2023/06/27 00:03:05;;;;;;;5.20;2.60;;;;;;;14.58;60.47;101375.25;683205;28;1476;-77
2023/06/27 00:03:26;;;;;;;4.57;2.60;;;;;;;14.56;60.47;101374.34;682542;29;1410;-77
2023/06/27 00:03:51;;;;;;;4.50;2.60;;;;;;;14.55;60.68;101372.56;680217;29;740;-77
2023/06/27 00:04:13;;;;;;;4.38;2.60;;;;;;;14.49;60.81;101371.56;680694;29;1199;-77
2023/06/27 00:04:34;;;;;;;5.93;2.80;;;;;;;14.54;60.79;101382.19;677417;29;1361;-77
2023/06/27 00:04:56;;;;;;;5.65;2.75;;;;;;;14.46;60.91;101366.28;680223;29;1578;-77
2023/06/27 00:05:16;;;;;;;5.22;2.60;;;;;;;14.48;60.84;101375.06;680648;29;1294;-77
2023/06/27 00:05:38;;;;;;;4.40;2.40;;;;;;;14.52;61.26;101387.38;680070;29;1165;-77
2023/06/27 00:06:04;;;;;;;4.38;2.60;;;;;;;14.53;61.30;101388.28;679661;29;1630;-77
2023/06/27 00:06:24;;;;;;;4.80;2.70;;;;;;;14.47;61.10;101377.63;679880;29;1121;-77
2023/06/27 00:06:46;;;;;;;4.53;2.70;;;;;;;14.45;60.92;101374.97;680715;29;1045;-77
2023/06/27 00:07:10;;;;;;;4.03;2.53;;;;;;;14.48;61.23;101385.56;682067;29;1193;-77
2023/06/27 00:07:31;;;;;;;4.97;2.60;;;;;;;14.43;61.54;101376.69;677481;29;1088;-77
2023/06/27 00:07:51;;;;;;;6.57;2.80;;;;;;;14.43;61.45;101381.94;685375;28;1092;-77
2023/06/27 00:08:12;;;;;;;6.80;3.03;;;;;;;14.43;61.65;101374.06;679704;29;1651;-78
2023/06/27 00:08:33;;;;;;;4.97;2.78;;;;;;;14.42;61.31;101380.16;684602;28;1291;-77
2023/06/27 00:08:54;;;;;;;3.90;2.80;;;;;;;14.43;61.33;101381.94;679907;29;1173;-77
2023/06/27 00:09:15;;;;;;;4.30;2.80;;;;;;;14.43;61.45;101374.06;683828;28;1700;-77
2023/06/27 00:09:35;;;;;;;4.60;3.00;;;;;;;14.44;61.53;101383.72;685382;28;1158;-77
2023/06/27 00:09:56;;;;;;;5.25;2.88;;;;;;;14.42;61.54;101388.06;684784;28;1054;-78
2023/06/27 00:10:17;;;;;;;5.17;2.87;;;;;;;14.41;61.48;101381.03;687229;28;1741;-78
2023/06/27 00:10:37;;;;;;;4.38;2.63;;;;;;;14.42;61.57;101388.06;687714;28;1197;-77
2023/06/27 00:10:58;;;;;;;4.80;2.80;;;;;;;14.41;61.67;101382.75;687131;28;1146;-77
2023/06/27 00:11:19;;;;;;;4.22;2.60;;;;;;;14.41;61.75;101381.03;682296;28;1393;-77
2023/06/27 00:11:40;;;;;;;3.80;2.57;;;;;;;14.38;61.66;101379.22;677910;29;1245;-77
2023/06/27 00:12:00;;;;;;;3.72;2.40;;;;;;;14.37;61.98;101384.44;677257;29;1113;-77
2023/06/27 00:12:22;;;;;;;5.20;2.50;;;;;;;14.43;61.64;101394.19;680243;29;1166;-77
2023/06/27 00:12:44;;;;;;;5.82;2.67;;;;;;;14.39;61.75;101385.38;679219;29;1475;-77
2023/06/27 00:13:04;;;;;;;5.70;2.70;;;;;;;14.35;61.87;101383.50;680776;28;1196;-78
2023/06/27 00:13:59;;;;;;;5.20;2.70;;;;;;;14.40;61.85;101392.38;679907;29;1136;-77
2023/06/27 00:14:20;;;;;;;5.20;2.75;;;;;;;14.33;61.88;101385.22;682564;29;1111;-78
2023/06/27 00:14:40;;;;;;;4.72;2.67;;;;;;;14.36;62.08;101390.53;679558;29;1546;-77
2023/06/27 00:15:05;;;;;;;3.72;2.58;;;;;;;14.35;61.95;101396.63;683008;28;1150;-77
2023/06/27 00:15:29;;;;;;;3.28;2.33;;;;;;;14.28;62.32;101382.50;688048;28;1958;-77
2023/06/27 00:15:52;;;;;;;3.35;2.45;;;;;;;14.24;62.34;101384.16;687072;28;1880;-77
2023/06/27 00:16:15;;;;;;;3.70;2.42;;;;;;;14.28;62.19;101378.97;687964;28;1114;-77
2023/06/27 00:16:36;;;;;;;4.07;2.60;;;;;;;14.23;62.51;101377.16;687191;28;874;-77
2023/06/27 00:16:57;;;;;;;4.50;2.70;;;;;;;14.25;62.44;101383.31;676786;29;1662;-77
2023/06/27 00:17:22;;;;;;;5.50;2.70;;;;;;;14.23;62.42;101385.03;681446;28;1727;-77
2023/06/27 00:17:43;;;;;;;5.60;2.70;;;;;;;14.24;62.83;101383.28;682506;29;1213;-78
2023/06/27 00:18:07;;;;;;;6.47;2.70;;;;;;;14.22;63.00;101383.25;683248;28;1719;-77
2023/06/27 00:18:34;;;;;;;5.55;2.80;;;;;;;14.18;62.89;101378.78;680075;29;1364;-77
2023/06/27 00:18:54;;;;;;;5.38;2.70;;;;;;;14.20;62.92;101374.44;682642;29;1058;-78
2023/06/27 00:19:15;;;;;;;5.18;2.85;;;;;;;14.18;63.06;101384.03;679630;29;1655;-77
2023/06/27 00:19:36;;;;;;;5.15;2.60;;;;;;;14.19;62.99;101385.78;679408;29;1176;-77
2023/06/27 00:19:57;;;;;;;5.57;2.70;;;;;;;14.18;63.36;101386.66;681777;29;1107;-77
2023/06/27 00:20:18;;;;;;;5.25;2.50;;;;;;;14.16;63.25;101377.84;688967;28;1623;-78
2023/06/27 00:20:39;;;;;;;5.18;2.60;;;;;;;14.14;63.23;101379.56;688036;28;1142;-77
2023/06/27 00:21:29;;;;;;;4.80;2.60;;;;;;;14.20;63.37;101390.19;682742;28;1404;-76
2023/06/27 00:21:52;;;;;;;3.40;2.33;;;;;;;14.12;63.26;101386.50;679865;29;1666;-76
2023/06/27 00:22:12;;;;;;;3.23;2.10;;;;;;;14.11;63.43;101385.63;679771;29;1410;-76
2023/06/27 00:22:33;;;;;;;3.10;2.13;;;;;;;14.09;63.51;101383.78;677255;29;1773;-76
2023/06/27 00:23:16;;;;;;;4.05;2.40;;;;;;;14.09;63.59;101386.41;674720;29;1230;-75
2023/06/27 00:23:36;;;;;;;4.95;3.10;;;;;;;14.09;63.52;101386.41;680772;29;1574;-77
2023/06/27 00:23:58;;;;;;;4.73;2.90;;;;;;;14.09;63.37;101387.28;679756;29;1360;-77
2023/06/27 00:24:18;;;;;;;5.80;2.58;;;;;;;14.06;63.86;101387.22;682810;28;1071;-77
2023/06/27 00:24:39;;;;;;;5.50;2.40;;;;;;;14.02;63.67;101379.25;684039;28;1804;-78
2023/06/27 00:25:00;;;;;;;4.70;2.20;;;;;;;14.04;63.67;101382.78;677593;29;1629;-77
2023/06/27 00:25:21;;;;;;;3.70;2.40;;;;;;;14.02;63.91;101384.50;680631;29;1005;-77
2023/06/27 00:25:42;;;;;;;4.93;2.50;;;;;;;14.02;64.03;101394.97;680792;29;1827;-77
2023/06/27 00:26:03;;;;;;;5.20;2.50;;;;;;;14.06;64.25;101388.94;682990;28;1112;-78
2023/06/27 00:26:24;;;;;;;6.28;2.45;;;;;;;14.05;64.05;101390.69;683283;29;1166;-76
2023/06/27 00:26:44;;;;;;;5.30;2.40;;;;;;;14.04;64.12;101388.03;680520;29;1513;-77
2023/06/27 00:27:06;;;;;;;5.82;2.58;;;;;;;14.02;63.81;101395.84;679129;29;1116;-77
2023/06/27 00:27:26;;;;;;;5.40;2.70;;;;;;;13.98;64.03;101384.44;679860;29;1326;-77
2023/06/27 00:27:47;;;;;;;5.60;2.80;;;;;;;14.04;64.03;101388.03;682492;29;1410;-77
2023/06/27 00:28:08;;;;;;;5.72;3.00;;;;;;;14.04;63.89;101382.78;686930;28;1418;-77
2023/06/27 00:28:29;;;;;;;5.00;2.90;;;;;;;14.03;64.14;101384.53;678115;29;1149;-78
2023/06/27 00:28:50;;;;;;;4.10;2.70;;;;;;;14.01;63.93;101393.22;680045;29;1260;-78
2023/06/27 00:29:11;;;;;;;3.55;2.50;;;;;;;14.06;63.79;101391.56;681756;29;1525;-77
2023/06/27 00:29:33;;;;;;;4.05;2.60;;;;;;;13.98;63.90;101379.19;682475;29;1277;-78
2023/06/27 00:29:53;;;;;;;4.43;2.80;;;;;;;14.00;64.16;101380.94;680531;29;1229;-78
2023/06/27 00:30:14;;;;;;;6.10;3.00;;;;;;;14.01;63.96;101387.97;674801;29;1642;-78
2023/06/27 00:30:35;;;;;;;6.05;3.00;;;;;;;13.97;63.84;101381.75;680541;29;1221;-78
2023/06/27 00:30:55;;;;;;;5.50;2.90;;;;;;;13.99;63.85;101390.53;680587;28;1081;-77
2023/06/27 00:31:16;;;;;;;3.90;2.65;;;;;;;13.98;63.80;101388.78;685456;28;1532;-78
2023/06/27 00:31:37;;;;;;;4.43;2.70;;;;;;;14.02;63.98;101384.50;677915;29;1450;-77
2023/06/27 00:32:00;;;;;;;4.40;2.80;;;;;;;14.00;63.83;101375.69;680589;29;1701;-78
2023/06/27 00:32:21;;;;;;;4.63;2.80;;;;;;;13.98;63.78;101379.19;681111;29;1608;-78
2023/06/27 00:32:41;;;;;;;3.70;2.53;;;;;;;14.01;64.00;101380.97;683324;29;1084;-78
2023/06/27 00:33:02;;;;;;;4.00;2.55;;;;;;;13.97;63.98;101387.88;685566;28;1199;-77
2023/06/27 00:33:25;;;;;;;4.38;2.70;;;;;;;14.01;63.83;101382.72;688183;28;1688;-77
2023/06/27 00:33:46;;;;;;;4.57;2.70;;;;;;;14.01;63.98;101390.59;675481;29;872;-78
2023/06/27 00:34:07;;;;;;;4.32;2.80;;;;;;;13.98;63.79;101373.94;680261;29;1302;-77
2023/06/27 00:34:27;;;;;;;6.90;2.90;;;;;;;13.97;63.69;101387.88;679335;29;1540;-77
2023/06/27 00:34:48;;;;;;;7.50;3.10;;;;;;;13.97;64.01;101387.88;678123;29;1023;-77
2023/06/27 00:35:08;;;;;;;8.40;3.08;;;;;;;13.97;64.12;101382.63;676518;29;1316;-77
2023/06/27 00:35:32;;;;;;;6.37;2.93;;;;;;;13.96;64.04;101377.38;680159;29;1911;-77
2023/06/27 00:35:53;;;;;;;5.75;2.80;;;;;;;13.98;63.90;101388.78;682682;29;1214;-77
2023/06/27 00:36:14;;;;;;;5.45;3.00;;;;;;;13.98;63.89;101388.78;683109;29;1248;-78
2023/06/27 00:36:35;;;;;;;5.43;3.20;;;;;;;13.96;63.92;101380.84;682242;29;1715;-77
2023/06/27 00:36:56;;;;;;;6.00;3.27;;;;;;;13.95;64.28;101389.59;675021;29;1180;-77
2023/06/27 00:37:16;;;;;;;5.82;3.10;;;;;;;13.98;64.17;101389.69;677783;29;1074;-77
2023/06/27 00:37:37;;;;;;;4.90;2.87;;;;;;;13.94;64.13;101387.81;683381;28;1650;-77
2023/06/27 00:37:57;;;;;;;4.57;2.90;;;;;;;13.93;64.30;101383.41;682509;28;1124;-77
2023/06/27 00:38:18;;;;;;;4.38;3.00;;;;;;;13.89;64.22;101373.69;680658;29;992;-77
2023/06/27 00:38:39;;;;;;;4.25;3.10;;;;;;;13.94;63.92;101381.66;680678;29;934;-77
2023/06/27 00:39:00;;;;;;;4.35;3.17;;;;;;;14.00;64.08;101394.94;683046;28;1938;-77
2023/06/27 00:39:21;;;;;;;4.97;3.27;;;;;;;13.94;64.30;101379.94;686543;28;1355;-77
2023/06/27 00:39:41;;;;;;;4.97;3.27;;;;;;;13.95;64.17;101389.59;680679;29;957;-77
2023/06/27 00:40:03;;;;;;;5.20;3.40;;;;;;;13.97;64.35;101389.63;675213;29;1757;-77
2023/06/27 00:40:24;;;;;;;5.13;3.28;;;;;;;13.95;64.01;101384.34;683396;29;977;-77
2023/06/27 00:40:44;;;;;;;4.37;3.13;;;;;;;13.95;64.21;101384.34;686827;28;1702;-77
2023/06/27 00:41:05;;;;;;;4.43;2.90;;;;;;;13.96;64.03;101380.84;686450;28;1347;-77
2023/06/27 00:41:28;;;;;;;4.32;2.83;;;;;;;13.97;63.99;101387.00;680173;29;1370;-78
2023/06/27 00:41:48;;;;;;;4.80;3.00;;;;;;;13.96;64.24;101387.84;677791;29;1187;-77
2023/06/27 00:42:09;;;;;;;4.50;3.10;;;;;;;13.99;64.22;101395.78;680163;29;1189;-77
2023/06/27 00:42:30;;;;;;;4.20;3.00;;;;;;;13.95;63.96;101389.59;680590;29;1230;-78
2023/06/27 00:42:51;;;;;;;4.20;2.80;;;;;;;13.96;63.94;101378.22;677812;29;1057;-78
2023/06/27 00:43:11;;;;;;;4.90;2.63;;;;;;;13.95;64.03;101386.97;679165;29;1634;-77
2023/06/27 00:43:32;;;;;;;4.87;2.70;;;;;;;13.98;63.76;101388.78;679900;29;1234;-77
2023/06/27 00:44:07;;;;;;;4.22;2.70;;;;;;;13.95;64.03;101381.72;678255;29;1392;-77
2023/06/27 00:44:27;;;;;;;4.35;2.80;;;;;;;13.97;63.75;101384.38;680537;29;1139;-77
2023/06/27 00:44:48;;;;;;;5.00;2.90;;;;;;;13.93;64.08;101383.41;683181;29;1106;-77
2023/06/27 00:45:09;;;;;;;5.40;3.08;;;;;;;13.96;63.94;101380.84;683608;28;1684;-77
2023/06/27 00:45:30;;;;;;;4.75;2.90;;;;;;;13.91;64.03;101381.59;685918;28;1222;-78
2023/06/27 00:45:51;;;;;;;4.30;2.70;;;;;;;14.00;64.18;101388.81;678336;29;1273;-77
2023/06/27 00:46:24;;;;;;;4.30;2.60;;;;;;;13.95;64.12;101384.34;679967;29;1822;-78
2023/06/27 00:46:47;;;;;;;3.97;2.72;;;;;;;13.91;63.84;101377.25;677979;29;1018;-77
2023/06/27 00:47:08;;;;;;;4.60;2.90;;;;;;;13.93;63.91;101386.03;680135;29;1127;-77
2023/06/27 00:47:30;;;;;;;6.03;3.10;;;;;;;13.93;63.80;101379.91;680735;29;1149;-77
2023/06/27 00:47:56;;;;;;;6.70;2.95;;;;;;;13.93;64.33;101388.66;682980;29;1270;-77
2023/06/27 00:48:19;;;;;;;5.97;3.17;;;;;;;13.94;63.87;101379.94;683023;28;1295;-77
2023/06/27 00:48:40;;;;;;;5.32;3.00;;;;;;;13.93;64.02;101378.16;677843;29;1898;-78
2023/06/27 00:49:02;;;;;;;5.05;3.30;;;;;;;13.92;63.82;101379.03;681307;29;1094;-75
2023/06/27 00:49:23;;;;;;;5.10;3.00;;;;;;;13.93;63.97;101379.91;683364;29;816;-75
2023/06/27 00:49:43;;;;;;;5.05;3.10;;;;;;;13.91;63.87;101376.34;685295;28;1721;-75
2023/06/27 00:50:06;;;;;;;4.22;2.90;;;;;;;13.95;63.96;101389.59;685417;28;1561;-75
2023/06/27 00:50:27;;;;;;;4.20;3.05;;;;;;;13.93;63.85;101379.91;680746;29;1398;-77
2023/06/27 00:50:52;;;;;;;5.60;3.15;;;;;;;13.95;64.27;101392.22;682787;29;1637;-77
2023/06/27 00:51:12;;;;;;;7.40;3.28;;;;;;;13.91;64.30;101385.13;680300;29;1304;-77
2023/06/27 00:51:33;;;;;;;6.63;3.00;;;;;;;13.94;63.93;101381.66;683155;29;1301;-78
2023/06/27 00:51:55;;;;;;;5.10;2.80;;;;;;;13.92;64.23;101384.28;680401;29;1006;-77
2023/06/27 00:52:15;;;;;;;5.60;2.90;;;;;;;13.96;64.14;101390.47;681061;29;1097;-77
2023/06/27 00:52:38;;;;;;;7.28;3.10;;;;;;;13.89;64.03;101371.06;678092;29;1124;-77
2023/06/27 00:53:01;;;;;;;6.63;3.20;;;;;;;13.90;64.37;101377.22;679284;29;1635;-77
2023/06/27 00:53:22;;;;;;;5.78;3.28;;;;;;;13.92;63.99;101394.78;683280;29;867;-77
2023/06/27 00:53:43;;;;;;;5.07;3.30;;;;;;;13.90;64.34;101383.31;685928;28;1213;-77
2023/06/27 00:54:04;;;;;;;5.43;3.30;;;;;;;13.92;64.08;101389.53;679866;29;1719;-77
2023/06/27 00:54:25;;;;;;;5.57;3.20;;;;;;;13.91;64.31;101379.88;680634;29;1176;-77
2023/06/27 00:54:46;;;;;;;5.20;3.13;;;;;;;13.91;64.15;101377.25;680567;29;1137;-77
2023/06/27 00:55:08;;;;;;;4.82;2.90;;;;;;;13.92;64.21;101380.75;678842;29;1539;-77
2023/06/27 00:55:31;;;;;;;4.47;2.80;;;;;;;13.92;64.34;101384.28;681112;29;1918;-77
2023/06/27 00:55:51;;;;;;;4.03;2.80;;;;;;;13.92;64.20;101378.13;677856;29;1118;-77
2023/06/27 00:56:12;;;;;;;3.60;2.70;;;;;;;13.92;64.12;101383.38;677902;29;1072;-77
2023/06/27 00:56:34;;;;;;;4.10;2.58;;;;;;;13.92;64.23;101384.28;677949;29;1174;-77
2023/06/27 00:56:55;;;;;;;4.80;2.70;;;;;;;13.93;64.20;101388.66;680053;29;1292;-77
2023/06/27 00:57:17;;;;;;;4.85;2.90;;;;;;;13.89;64.46;101384.19;681545;29;1628;-77
2023/06/27 00:57:39;;;;;;;4.20;2.85;;;;;;;13.90;63.99;101387.69;680559;29;1221;-77
2023/06/27 00:58:00;;;;;;;5.35;3.00;;;;;;;13.90;64.54;101378.06;680556;28;1191;-77
2023/06/27 00:58:21;;;;;;;5.07;2.90;;;;;;;13.88;64.45;101381.53;680422;29;1545;-77
2023/06/27 00:58:42;;;;;;;5.93;3.10;;;;;;;13.89;64.36;101384.19;685765;28;1239;-77
2023/06/27 00:59:03;;;;;;;5.32;2.92;;;;;;;13.86;64.54;101384.13;680253;29;1568;-77
2023/06/27 00:59:24;;;;;;;5.10;2.88;;;;;;;13.91;64.21;101386.84;682072;29;1609;-78
2023/06/27 00:59:46;;;;;;;5.15;2.83;;;;;;;13.87;64.35;101383.25;675415;29;1225;-78
2023/06/27 01:00:11;;;;;;;4.35;2.80;;;;;;;13.90;64.53;101393.81;677401;29;1297;-77
2023/06/27 01:01:00;;;;;;;5.40;3.10;;;;;;;13.89;64.75;101388.56;679940;29;871;-77
2023/06/27 01:01:31;;;;;;;4.35;2.80;;;;;;;13.79;64.53;101377.84;682901;28;1506;-78
2023/06/27 01:01:51;;;;;;;5.10;2.95;;;;;;;13.77;65.08;101376.03;684168;28;1234;-78
2023/06/27 01:02:12;;;;;;;5.20;2.80;;;;;;;13.77;65.41;101373.41;686523;28;1254;-78
2023/06/27 01:02:32;;;;;;;5.20;2.70;;;;;;;13.78;65.08;101376.03;678685;29;1562;-77
2023/06/27 01:02:53;;;;;;;5.10;2.70;;;;;;;13.77;65.22;101376.03;680320;29;1392;-78
2023/06/27 01:03:15;;;;;;;7.30;3.00;;;;;;;13.78;65.09;101381.28;684553;28;1263;-78
2023/06/27 01:03:35;;;;;;;7.15;3.05;;;;;;;13.78;65.22;101386.53;678386;29;1571;-78
2023/06/27 01:03:56;;;;;;;6.17;2.90;;;;;;;13.77;65.30;101373.41;675431;29;1232;-78
2023/06/27 01:04:17;;;;;;;5.70;2.90;;;;;;;13.77;65.09;101378.66;679999;29;1085;-77
2023/06/27 01:04:39;;;;;;;5.75;2.80;;;;;;;13.76;65.23;101376.88;680479;29;1669;-77
2023/06/27 01:04:59;;;;;;;6.22;2.80;;;;;;;13.76;65.25;101376.88;680146;29;1958;-78
2023/06/27 01:05:20;;;;;;;5.20;2.80;;;;;;;13.79;65.31;101377.84;683269;29;991;-77
2023/06/27 01:05:42;;;;;;;4.97;3.03;;;;;;;13.79;65.30;101382.19;683910;28;1662;-78
2023/06/27 01:06:14;;;;;;;4.65;3.15;;;;;;;13.82;65.34;101384.88;688268;28;1686;-78
2023/06/27 01:06:35;;;;;;;7.10;3.50;;;;;;;13.87;65.57;101385.03;685816;28;1295;-78
2023/06/27 01:07:07;;;;;;;6.47;3.33;;;;;;;13.81;65.38;101378.75;685123;28;1804;-77
2023/06/27 01:07:39;;;;;;;5.72;3.03;;;;;;;13.82;65.52;101371.75;683174;29;1038;-78
2023/06/27 01:08:25;;;;;;;7.00;3.10;;;;;;;13.83;65.26;101376.19;687821;28;1602;-77
2023/06/27 01:08:56;;;;;;;5.43;2.80;;;;;;;13.86;65.33;101384.13;683265;29;867;-77
2023/06/27 01:09:34;;;;;;;4.50;2.90;;;;;;;13.86;65.47;101384.13;685699;28;1331;-78
2023/06/27 01:10:05;;;;;;;5.30;3.13;;;;;;;13.85;65.19;101374.47;682787;28;2154;-81
2023/06/27 01:10:34;;;;;;;6.38;3.30;;;;;;;13.87;65.33;101383.25;680358;29;1037;-77
2023/06/27 01:11:27;;;;;;;7.68;3.00;;;;;;;13.82;65.33;101366.50;683245;28;1122;-77
2023/06/27 01:11:57;;;;;;;8.52;3.13;;;;;;;13.82;65.56;101375.28;679746;29;1018;-78
2023/06/27 01:12:35;;;;;;;6.07;3.05;;;;;;;13.77;66.07;101369.03;679922;29;1694;-77
2023/06/27 01:13:20;;;;;;;6.25;3.10;;;;;;;13.75;66.23;101382.97;682377;29;1094;-78
2023/06/27 01:13:53;;;;;;;6.05;2.85;;;;;;;13.69;66.20;101371.47;683264;29;1102;-78
2023/06/27 01:14:18;;;;;;;6.80;2.90;;;;;;;13.73;66.02;101382.03;679648;29;1065;-77
2023/06/27 01:14:43;;;;;;;5.32;2.97;;;;;;;13.71;66.00;101380.25;679880;29;1200;-77
2023/06/27 01:15:06;;;;;;;3.97;2.97;;;;;;;13.70;66.33;101378.50;685285;28;1208;-77
2023/06/27 01:15:29;;;;;;;4.80;3.03;;;;;;;13.69;66.29;101371.47;682737;28;2106;-78
2023/06/27 01:15:51;;;;;;;5.10;3.00;;;;;;;13.69;66.05;101374.09;680480;29;926;-77
2023/06/27 01:16:12;;;;;;;4.78;2.90;;;;;;;13.73;66.12;101376.78;684586;28;1206;-78
2023/06/27 01:16:35;;;;;;;4.97;3.00;;;;;;;13.76;66.35;101383.00;683388;28;1340;-78
2023/06/27 01:16:57;;;;;;;5.97;3.20;;;;;;;13.76;66.21;101387.38;682995;28;1194;-77
2023/06/27 01:17:20;;;;;;;6.35;3.10;;;;;;;13.74;66.26;101384.69;684970;28;1209;-77
2023/06/27 01:17:41;;;;;;;4.85;2.67;;;;;;;13.75;66.12;101383.84;682975;29;1738;-77
2023/06/27 01:18:03;;;;;;;3.53;2.70;;;;;;;13.74;66.39;101374.22;677933;29;1144;-77
2023/06/27 01:18:27;;;;;;;3.85;2.55;;;;;;;13.76;66.33;101379.50;688256;28;1142;-78
2023/06/27 01:18:50;;;;;;;4.32;2.80;;;;;;;13.78;66.14;101385.66;684085;28;2016;-77
2023/06/27 01:19:33;;;;;;;4.10;2.80;;;;;;;13.84;66.08;101388.44;687183;28;1092;-77
2023/06/27 01:19:56;;;;;;;4.43;3.10;;;;;;;13.80;66.10;101384.88;684049;28;1736;-78
2023/06/27 01:20:19;;;;;;;4.15;3.00;;;;;;;13.80;66.06;101378.72;680269;29;1307;-77
2023/06/27 01:20:43;;;;;;;3.50;2.70;;;;;;;13.82;66.55;101385.78;680095;29;1446;-77
2023/06/27 01:21:09;;;;;;;4.15;2.88;;;;;;;13.85;66.20;101382.34;680631;29;1697;-77
2023/06/27 01:21:34;;;;;;;5.30;3.08;;;;;;;13.85;66.07;101380.59;683181;29;1269;-77
2023/06/27 01:22:02;;;;;;;5.20;3.00;;;;;;;13.82;65.77;101370.03;684508;28;1877;-77
2023/06/27 01:22:32;;;;;;;5.05;2.80;;;;;;;13.87;66.05;101382.41;682691;29;1388;-77
2023/06/27 01:23:09;;;;;;;5.55;3.05;;;;;;;13.88;65.68;101368.44;687163;28;1091;-77
2023/06/27 01:23:45;;;;;;;4.70;3.10;;;;;;;13.98;65.60;101391.41;680543;29;1258;-76
2023/06/27 01:24:07;;;;;;;4.35;2.92;;;;;;;13.91;65.63;101374.63;682852;28;1712;-76
2023/06/27 01:24:29;;;;;;;4.97;3.50;;;;;;;13.94;65.69;101382.56;677655;29;1280;-77
2023/06/27 01:24:50;;;;;;;5.30;3.60;;;;;;;14.00;65.56;101386.19;677856;29;1382;-76
2023/06/27 01:25:12;;;;;;;6.65;3.60;;;;;;;13.92;65.46;101367.63;675726;29;1595;-76
2023/06/27 01:25:33;;;;;;;6.37;3.33;;;;;;;14.02;65.43;101385.34;684631;28;1455;-77
2023/06/27 01:26:03;;;;;;;6.20;3.30;;;;;;;13.98;65.23;101373.03;683148;29;1072;-76
2023/06/27 01:26:27;;;;;;;5.10;3.30;;;;;;;14.01;65.54;101380.97;680193;29;1372;-76
2023/06/27 01:26:48;;;;;;;5.80;3.40;;;;;;;13.98;65.18;101373.03;677473;29;1398;-77
2023/06/27 01:27:12;;;;;;;5.10;3.30;;;;;;;14.02;65.32;101376.63;682574;28;1363;-76
2023/06/27 01:27:33;;;;;;;5.18;3.35;;;;;;;14.06;64.74;101381.97;680933;29;1777;-77
2023/06/27 01:27:55;;;;;;;5.10;3.40;;;;;;;14.07;64.96;101380.25;683388;28;1397;-77
2023/06/27 01:28:16;;;;;;;5.07;3.35;;;;;;;14.02;64.91;101374.00;677092;29;1165;-77
2023/06/27 01:28:39;;;;;;;5.45;3.40;;;;;;;14.09;64.75;101386.41;682750;28;1601;-76
2023/06/27 01:29:00;;;;;;;4.80;3.10;;;;;;;14.07;64.64;101377.63;685336;28;1210;-77
2023/06/27 01:29:21;;;;;;;5.65;3.08;;;;;;;14.05;64.67;101374.06;682828;28;1122;-77
2023/06/27 01:29:41;;;;;;;6.25;3.13;;;;;;;14.07;64.63;101370.63;678530;29;1693;-76
2023/06/27 01:30:03;;;;;;;7.25;3.40;;;;;;;14.07;64.65;101364.50;682893;28;1035;-76
2023/06/27 01:30:23;;;;;;;5.97;3.50;;;;;;;14.08;64.57;101372.38;684410;28;1850;-76
2023/06/27 01:30:44;;;;;;;5.70;3.40;;;;;;;14.08;64.60;101374.13;687137;28;1103;-77
2023/06/27 01:31:06;;;;;;;5.00;3.10;;;;;;;14.09;64.99;101375.91;678911;29;1147;-76
2023/06/27 01:31:34;;;;;;;4.85;3.10;;;;;;;14.12;64.43;101376.00;675636;29;1276;-77
2023/06/27 01:32:24;;;;;;;5.65;3.20;;;;;;;14.12;64.66;101373.38;679365;29;1790;-77
2023/06/27 01:33:07;;;;;;;6.15;3.33;;;;;;;14.14;64.73;101374.31;681987;28;1494;-76
2023/06/27 01:34:12;;;;;;;5.93;3.20;;;;;;;14.14;64.48;101370.78;683128;29;1120;-77
2023/06/27 01:34:54;;;;;;;6.90;3.60;;;;;;;14.14;64.40;101368.16;677765;29;1190;-77
2023/06/27 01:35:15;;;;;;;7.65;3.60;;;;;;;14.14;64.67;101362.91;681691;28;1978;-77
2023/06/27 01:36:12;;;;;;;7.40;3.50;;;;;;;14.19;64.49;101383.16;685064;28;800;-77
2023/06/27 01:36:44;;;;;;;5.32;3.10;;;;;;;14.11;64.45;101369.88;679635;29;1346;-77
2023/06/27 01:37:14;;;;;;;5.55;3.35;;;;;;;14.11;64.43;101368.97;678361;29;1528;-77
2023/06/27 01:37:57;;;;;;;5.88;3.50;;;;;;;14.14;64.41;101371.69;680527;29;1072;-76
2023/06/27 01:38:32;;;;;;;5.68;3.38;;;;;;;14.10;64.68;101362.81;681664;29;1980;-76
2023/06/27 01:38:58;;;;;;;5.22;3.40;;;;;;;14.12;64.87;101365.50;688343;28;1544;-77
2023/06/27 01:39:25;;;;;;;6.05;3.40;;;;;;;14.16;64.69;101371.72;680143;29;1560;-77
2023/06/27 01:39:53;;;;;;;8.75;3.38;;;;;;;14.11;64.87;101358.47;680530;29;2152;-76
2023/06/27 01:40:18;;;;;;;8.70;3.30;;;;;;;14.14;64.64;101365.53;682848;29;1148;-77
2023/06/27 01:40:43;;;;;;;6.57;3.22;;;;;;;14.16;64.86;101366.47;683104;29;1283;-76
2023/06/27 01:41:10;;;;;;;8.93;3.50;;;;;;;14.12;64.82;101360.25;677469;29;1514;-77
2023/06/27 01:41:37;;;;;;;7.50;3.40;;;;;;;14.14;64.92;101362.91;680103;29;1376;-76
2023/06/27 01:42:11;;;;;;;5.10;3.40;;;;;;;14.17;64.99;101374.38;680269;29;1091;-76
2023/06/27 01:42:39;;;;;;;5.47;3.70;;;;;;;14.13;64.64;101358.53;679293;29;1616;-77
2023/06/27 01:43:06;;;;;;;5.30;3.45;;;;;;;14.13;65.19;101359.41;687179;28;1141;-77
2023/06/27 01:43:29;;;;;;;4.70;3.10;;;;;;;14.11;65.14;101361.09;683057;29;1367;-77
2023/06/27 01:43:52;;;;;;;6.57;3.42;;;;;;;14.17;64.99;101369.13;685482;28;1786;-76
2023/06/27 01:44:15;;;;;;;10.18;3.83;;;;;;;14.17;65.11;101366.50;682597;28;1079;-76
2023/06/27 01:44:37;;;;;;;12.73;4.07;;;;;;;14.18;65.58;101370.91;680311;29;1063;-77
2023/06/27 01:45:01;;;;;;;9.73;3.70;;;;;;;14.12;65.36;101362.88;682782;29;1234;-76
2023/06/27 01:45:23;;;;;;;8.40;3.50;;;;;;;14.13;65.40;101358.53;680461;29;1073;-77
2023/06/27 01:45:45;;;;;;;5.80;3.47;;;;;;;14.17;65.33;101363.88;682796;29;1394;-76
2023/06/27 01:46:08;;;;;;;5.35;3.40;;;;;;;14.18;65.56;101368.28;683223;28;1391;-77
2023/06/27 01:46:30;;;;;;;5.05;3.50;;;;;;;14.14;65.12;101361.19;685787;28;1077;-77
2023/06/27 01:46:51;;;;;;;7.57;3.50;;;;;;;14.14;65.35;101363.81;681688;28;1858;-75
2023/06/27 01:47:14;;;;;;;7.35;3.40;;;;;;;14.17;65.39;101361.25;686391;28;1333;-77
2023/06/27 01:47:37;;;;;;;5.15;3.10;;;;;;;14.11;65.44;101354.13;688412;28;1210;-77
2023/06/27 01:47:59;;;;;;;5.18;3.28;;;;;;;14.15;65.44;101365.59;684457;28;2037;-76
2023/06/27 01:48:22;;;;;;;4.88;3.40;;;;;;;14.17;65.25;101363.88;682539;29;1257;-77
2023/06/27 01:48:46;;;;;;;4.68;3.50;;;;;;;14.15;65.40;101355.09;680373;29;1007;-77
2023/06/27 01:49:08;;;;;;;4.32;3.20;;;;;;;14.19;65.45;101372.66;679767;29;1765;-77
2023/06/27 01:49:30;;;;;;;4.80;3.42;;;;;;;14.16;65.71;101358.59;683131;29;1085;-77
2023/06/27 01:49:51;;;;;;;5.40;3.60;;;;;;;14.16;65.51;101363.84;680215;29;1245;-76
2023/06/27 01:50:12;;;;;;;5.38;3.60;;;;;;;14.21;65.85;101365.69;683854;28;1334;-77
2023/06/27 01:50:34;;;;;;;5.53;3.33;;;;;;;14.16;65.75;101363.84;680453;29;1183;-76
2023/06/27 01:50:55;;;;;;;5.00;3.30;;;;;;;14.14;65.65;101358.56;682931;29;1367;-77
2023/06/27 01:51:16;;;;;;;6.25;3.35;;;;;;;14.18;65.64;101365.66;682797;29;1390;-77
2023/06/27 01:51:39;;;;;;;5.72;3.42;;;;;;;14.18;65.62;101360.41;683087;29;1169;-77
2023/06/27 01:52:00;;;;;;;6.22;3.45;;;;;;;14.15;65.60;101360.34;682781;29;1324;-77
2023/06/27 01:52:21;;;;;;;5.10;3.30;;;;;;;14.15;65.57;101354.19;679917;29;1613;-76
2023/06/27 01:52:42;;;;;;;5.45;3.25;;;;;;;14.19;65.62;101356.91;685813;28;1031;-77
2023/06/27 01:53:02;;;;;;;5.00;3.13;;;;;;;14.19;65.85;101359.53;680584;28;1124;-77
2023/06/27 01:53:23;;;;;;;6.22;3.63;;;;;;;14.15;65.86;101352.47;682771;29;1699;-77
2023/06/27 01:53:44;;;;;;;6.43;3.90;;;;;;;14.21;65.79;101359.59;683046;29;1058;-77
2023/06/27 01:54:05;;;;;;;6.80;4.15;;;;;;;14.21;65.98;101370.94;679989;29;1202;-77